Time;durP1;ratioP1;P1;durP2;ratioP2;P2;SDS_P1;SDS_P2;PMS_P1;PMS_P2;Temp;Humidity;BMP_temperature;BMP_pressure;BME280_temperature;BME280_humidity;BME280_pressure;Samples;Min_cycle;Max_cycle;Signal;HPM_P1;HPM_P2
2022/07/01 00:04:54;;;;;;;6.95;5.10;;;;;;;;;;10282464;28;20406;-76
2022/07/01 00:10:13;;;;;;;5.00;4.50;;;;;;;;;;10262558;28;20442;-77
2022/07/01 00:15:13;;;;;;;6.38;4.80;;;;;;;;;;10274342;28;20050;-76
2022/07/01 00:20:15;;;;;;;5.22;4.72;;;;;;;;;;10267952;28;20039;-76
2022/07/01 00:25:16;;;;;;;5.60;4.57;;;;;;;;;;10295465;28;20126;-77
2022/07/01 00:30:16;;;;;;;5.05;4.30;;;;;;;;;;10256894;28;20536;-78
2022/07/01 00:35:17;;;;;;;6.15;5.18;;;;;;;;;;10268606;28;20058;-78
2022/07/01 00:40:17;;;;;;;5.30;4.80;;;;;;;;;;10263421;28;20390;-77
2022/07/01 00:45:18;;;;;;;5.43;4.85;;;;;;;;;;10255882;28;20043;-77
2022/07/01 00:50:18;;;;;;;5.90;4.38;;;;;;;;;;10269367;28;20510;-77
2022/07/01 00:55:18;;;;;;;6.10;4.65;;;;;;;;;;10272968;28;20035;-76
2022/07/01 01:00:26;;;;;;;6.40;4.67;;;;;;;;;;10272336;28;20387;-75
2022/07/01 01:05:28;;;;;;;5.00;4.50;;;;;;;;;;10279756;28;20283;-78
2022/07/01 01:10:29;;;;;;;4.53;4.10;;;;;;;;;;10270587;28;20132;-77
2022/07/01 01:15:31;;;;;;;5.30;3.70;;;;;;;;;;10287296;28;20047;-77
2022/07/01 01:20:32;;;;;;;4.10;3.70;;;;;;;;;;10259723;28;20054;-76
2022/07/01 01:25:33;;;;;;;3.40;3.13;;;;;;;;;;10257705;28;20066;-76
2022/07/01 01:30:35;;;;;;;4.55;3.40;;;;;;;;;;10256352;28;20526;-76
2022/07/01 01:35:35;;;;;;;4.37;3.53;;;;;;;;;;10275003;28;20051;-77
2022/07/01 01:40:36;;;;;;;3.75;2.78;;;;;;;;;;10271932;28;20422;-77
2022/07/01 01:45:37;;;;;;;3.63;3.10;;;;;;;;;;10291573;28;20043;-76
2022/07/01 01:50:37;;;;;;;3.85;2.95;;;;;;;;;;10273883;28;20066;-77
2022/07/01 01:55:37;;;;;;;3.42;3.13;;;;;;;;;;10270677;28;20047;-74
2022/07/01 02:00:38;;;;;;;3.10;2.90;;;;;;;;;;10289630;28;20119;-76
2022/07/01 02:05:38;;;;;;;3.92;3.10;;;;;;;;;;10309000;28;20050;-79
2022/07/01 02:10:39;;;;;;;3.53;3.17;;;;;;;;;;10309746;28;20061;-78
2022/07/01 02:15:40;;;;;;;3.92;2.88;;;;;;;;;;10295785;28;20054;-76
2022/07/01 02:20:41;;;;;;;4.47;2.83;;;;;;;;;;10274685;28;20130;-78
2022/07/01 02:25:41;;;;;;;2.90;2.60;;;;;;;;;;10276324;28;20105;-77
2022/07/01 02:30:42;;;;;;;2.67;2.47;;;;;;;;;;10273456;28;20058;-78
2022/07/01 02:35:42;;;;;;;2.80;2.55;;;;;;;;;;10282255;28;20058;-76
2022/07/01 02:40:43;;;;;;;3.45;2.80;;;;;;;;;;10277935;28;20616;-76
2022/07/01 02:45:43;;;;;;;2.90;2.70;;;;;;;;;;10252547;28;20134;-77
2022/07/01 02:50:45;;;;;;;2.75;2.55;;;;;;;;;;10255095;28;20051;-76
2022/07/01 02:55:46;;;;;;;4.00;3.07;;;;;;;;;;10269419;28;20051;-75
2022/07/01 03:00:48;;;;;;;3.73;3.43;;;;;;;;;;10259441;28;20271;-75
2022/07/01 03:05:49;;;;;;;4.10;3.13;;;;;;;;;;10270017;28;20282;-75
2022/07/01 03:10:49;;;;;;;4.18;3.47;;;;;;;;;;10273791;28;20360;-75
2022/07/01 03:15:49;;;;;;;3.50;3.15;;;;;;;;;;10272235;28;20057;-76
2022/07/01 03:20:51;;;;;;;3.57;3.27;;;;;;;;;;10259483;28;20382;-76
2022/07/01 03:25:53;;;;;;;4.28;3.08;;;;;;;;;;10261002;28;20374;-75
2022/07/01 03:30:53;;;;;;;4.32;3.10;;;;;;;;;;10267941;28;20061;-77
2022/07/01 03:35:53;;;;;;;3.88;3.47;;;;;;;;;;10240147;28;20113;-76
2022/07/01 03:40:54;;;;;;;3.90;3.40;;;;;;;;;;10260196;28;20117;-76
2022/07/01 03:45:54;;;;;;;4.15;3.60;;;;;;;;;;10259222;28;20043;-75
2022/07/01 03:50:55;;;;;;;5.15;3.35;;;;;;;;;;10279079;28;20047;-76
2022/07/01 03:55:55;;;;;;;3.92;3.60;;;;;;;;;;10264207;28;20050;-75
2022/07/01 04:00:56;;;;;;;3.78;3.47;;;;;;;;;;10275596;28;20047;-76
2022/07/01 04:05:57;;;;;;;5.63;3.90;;;;;;;;;;10277813;28;20050;-76
2022/07/01 04:10:57;;;;;;;4.40;4.00;;;;;;;;;;10261597;28;20286;-75
2022/07/01 04:15:59;;;;;;;6.38;5.00;;;;;;;;;;10272410;28;20051;-74
2022/07/01 04:26:20;;;;;;;5.55;4.57;;;;;;;;;;10265568;28;20047;-76
2022/07/01 04:31:20;;;;;;;5.68;4.80;;;;;;;;;;10263413;28;20120;-77
2022/07/01 04:36:21;;;;;;;6.05;5.07;;;;;;;;;;10265640;28;20043;-76
2022/07/01 04:46:41;;;;;;;7.45;6.45;;;;;;;;;;10284366;28;20047;-76
2022/07/01 04:51:41;;;;;;;8.75;6.40;;;;;;;;;;10278804;28;20050;-76
2022/07/01 04:56:42;;;;;;;8.30;7.38;;;;;;;;;;10269128;28;20405;-77
2022/07/01 05:01:42;;;;;;;8.80;6.93;;;;;;;;;;10267699;28;20047;-78
2022/07/01 05:06:43;;;;;;;7.18;6.47;;;;;;;;;;10277133;28;20065;-78
2022/07/01 05:11:44;;;;;;;7.97;7.13;;;;;;;;;;10282302;28;20065;-78
2022/07/01 05:16:44;;;;;;;9.25;7.50;;;;;;;;;;10278061;28;20050;-79
2022/07/01 05:22:00;;;;;;;7.53;6.75;;;;;;;;;;10279821;28;20055;-77
2022/07/01 05:27:01;;;;;;;6.85;6.05;;;;;;;;;;10278451;28;20039;-78
2022/07/01 05:32:02;;;;;;;7.32;6.40;;;;;;;;;;10277983;28;20059;-79
2022/07/01 05:37:02;;;;;;;6.85;6.07;;;;;;;;;;10293550;28;20181;-78
2022/07/01 05:42:03;;;;;;;5.78;5.20;;;;;;;;;;10272181;28;20494;-76
2022/07/01 05:47:04;;;;;;;5.30;4.43;;;;;;;;;;10281709;28;20183;-75
2022/07/01 05:52:04;;;;;;;4.88;4.38;;;;;;;;;;10263438;28;20050;-77
2022/07/01 05:57:05;;;;;;;6.45;4.50;;;;;;;;;;10276257;28;20054;-75
2022/07/01 06:02:06;;;;;;;4.00;3.53;;;;;;;;;;10267099;28;20065;-74
2022/07/01 06:07:06;;;;;;;3.50;3.20;;;;;;;;;;10285708;28;20066;-76
2022/07/01 06:12:07;;;;;;;2.92;2.72;;;;;;;;;;10264168;28;20047;-76
2022/07/01 06:17:09;;;;;;;3.75;3.00;;;;;;;;;;10267965;28;20495;-75
2022/07/01 06:22:09;;;;;;;2.90;2.60;;;;;;;;;;10294457;28;20058;-74
2022/07/01 06:27:10;;;;;;;7.03;5.65;;;;;;;;;;10291562;28;20762;-77
2022/07/01 06:32:10;;;;;;;3.05;2.80;;;;;;;;;;10275549;28;20131;-78
2022/07/01 06:37:11;;;;;;;3.95;3.55;;;;;;;;;;10275959;28;20138;-80
2022/07/01 06:42:11;;;;;;;3.40;2.92;;;;;;;;;;10271021;28;20142;-77
2022/07/01 06:47:12;;;;;;;3.42;2.85;;;;;;;;;;10277055;28;20098;-77
2022/07/01 06:52:12;;;;;;;3.25;2.90;;;;;;;;;;10269676;28;20118;-77
2022/07/01 06:57:14;;;;;;;3.72;3.00;;;;;;;;;;10307280;28;20053;-76
2022/07/01 07:02:14;;;;;;;3.80;3.40;;;;;;;;;;10279357;28;20062;-78
2022/07/01 07:07:15;;;;;;;1.80;1.70;;;;;;;;;;10271615;28;20043;-76
2022/07/01 07:12:15;;;;;;;2.00;1.80;;;;;;;;;;10261439;28;20190;-77
2022/07/01 07:17:16;;;;;;;2.45;2.25;;;;;;;;;;10262430;28;20054;-75
2022/07/01 07:22:16;;;;;;;2.47;2.05;;;;;;;;;;10268563;28;20061;-80
2022/07/01 07:27:17;;;;;;;4.53;2.88;;;;;;;;;;10264730;28;20233;-79
2022/07/01 07:32:17;;;;;;;2.78;2.58;;;;;;;;;;10270056;28;20150;-76
2022/07/01 07:37:17;;;;;;;3.78;2.92;;;;;;;;;;10275883;28;20038;-76
2022/07/01 07:42:18;;;;;;;4.32;2.50;;;;;;;;;;10280942;28;20055;-76
2022/07/01 07:47:19;;;;;;;3.92;2.92;;;;;;;;;;10294711;28;20133;-75
2022/07/01 07:52:19;;;;;;;2.95;2.65;;;;;;;;;;10272402;28;20146;-74
2022/07/01 07:57:20;;;;;;;4.00;2.65;;;;;;;;;;10287288;28;20038;-74
2022/07/01 08:02:22;;;;;;;4.82;3.25;;;;;;;;;;10290354;28;20039;-79
2022/07/01 08:07:23;;;;;;;3.00;2.80;;;;;;;;;;10291926;28;20047;-79
2022/07/01 08:12:26;;;;;;;3.30;2.97;;;;;;;;;;10288605;28;20058;-80
2022/07/01 08:17:26;;;;;;;4.32;2.90;;;;;;;;;;10294816;28;20053;-80
2022/07/01 08:22:27;;;;;;;4.05;3.55;;;;;;;;;;10320812;28;20053;-80
2022/07/01 08:27:30;;;;;;;4.10;3.03;;;;;;;;;;10300044;28;20675;-83
2022/07/01 08:32:30;;;;;;;3.33;2.92;;;;;;;;;;10305221;28;20145;-80
2022/07/01 08:37:33;;;;;;;5.18;3.15;;;;;;;;;;10296583;28;20554;-80
2022/07/01 08:42:35;;;;;;;6.18;3.60;;;;;;;;;;10263882;28;20053;-81
2022/07/01 08:47:48;;;;;;;5.63;3.05;;;;;;;;;;10290894;28;20107;-80
2022/07/01 08:52:53;;;;;;;3.60;2.80;;;;;;;;;;10294098;28;20051;-80
2022/07/01 08:57:54;;;;;;;3.20;2.60;;;;;;;;;;10288930;28;20035;-86
2022/07/01 09:02:59;;;;;;;2.72;2.42;;;;;;;;;;10298371;28;20039;-80
2022/07/01 09:08:03;;;;;;;2.88;2.67;;;;;;;;;;10315005;28;20039;-80
2022/07/01 09:13:11;;;;;;;3.47;2.50;;;;;;;;;;10269701;28;20066;-80
2022/07/01 09:18:13;;;;;;;3.60;2.80;;;;;;;;;;10292705;28;20043;-83
2022/07/01 09:23:15;;;;;;;4.07;2.83;;;;;;;;;;10288759;28;20054;-82
2022/07/01 09:28:17;;;;;;;4.10;3.70;;;;;;;;;;10291662;28;20043;-83
2022/07/01 09:33:20;;;;;;;3.55;3.25;;;;;;;;;;10310960;28;20098;-84
2022/07/01 09:38:22;;;;;;;3.67;3.38;;;;;;;;;;10297814;28;20058;-81
2022/07/01 09:43:27;;;;;;;4.27;3.83;;;;;;;;;;10298815;28;20050;-82
2022/07/01 09:48:34;;;;;;;4.80;3.95;;;;;;;;;;10291217;28;20574;-82
2022/07/01 09:53:36;;;;;;;4.53;4.03;;;;;;;;;;10287948;28;20066;-83
2022/07/01 09:58:38;;;;;;;4.88;4.38;;;;;;;;;;10284561;28;20047;-81
2022/07/01 10:03:39;;;;;;;;;;;;;;;;;;10298805;28;20046;-81
2022/07/01 10:20:16;;;;;;;4.95;3.67;;;;;;;;;;10349675;28;20050;-84
2022/07/01 10:25:30;;;;;;;4.10;3.70;;;;;;;;;;10313041;28;20049;-88
2022/07/01 10:30:32;;;;;;;3.58;3.20;;;;;;;;;;10298925;28;20043;-82
2022/07/01 10:35:35;;;;;;;4.63;3.83;;;;;;;;;;10319551;28;20047;-82
2022/07/01 10:40:47;;;;;;;4.18;3.72;;;;;;;;;;10341491;28;20062;-85
2022/07/01 10:45:48;;;;;;;6.57;4.70;;;;;;;;;;10347668;28;20062;-81
2022/07/01 10:50:53;;;;;;;4.53;3.35;;;;;;;;;;10317455;28;20055;-83
2022/07/01 10:55:55;;;;;;;4.55;4.15;;;;;;;;;;10339585;28;20038;-82
2022/07/01 11:00:57;;;;;;;3.85;3.50;;;;;;;;;;10367551;28;20034;-84
2022/07/01 11:05:57;;;;;;;5.18;4.07;;;;;;;;;;10355553;28;20035;-80
2022/07/01 11:11:04;;;;;;;4.20;3.30;;;;;;;;;;10365229;28;20052;-77
2022/07/01 11:16:04;;;;;;;4.40;4.00;;;;;;;;;;10342148;28;20046;-77
2022/07/01 11:21:06;;;;;;;5.75;4.50;;;;;;;;;;10326993;28;20050;-78
2022/07/01 11:26:06;;;;;;;5.32;4.47;;;;;;;;;;10341490;28;20536;-79
2022/07/01 11:31:08;;;;;;;5.63;4.30;;;;;;;;;;10336765;28;20060;-76
2022/07/01 11:41:28;;;;;;;5.45;4.18;;;;;;;;;;10338873;28;20049;-79
2022/07/01 11:46:29;;;;;;;5.97;5.07;;;;;;;;;;10337606;28;20461;-77
2022/07/01 11:51:30;;;;;;;4.88;4.32;;;;;;;;;;10357275;28;20058;-78
2022/07/01 11:56:31;;;;;;;4.85;4.07;;;;;;;;;;10340358;28;20458;-79
2022/07/01 12:01:33;;;;;;;9.50;7.50;;;;;;;;;;10355690;28;20077;-78
2022/07/01 12:06:34;;;;;;;3.75;3.30;;;;;;;;;;10356929;28;20038;-75
2022/07/01 12:11:34;;;;;;;4.00;3.60;;;;;;;;;;10352859;28;20054;-76
2022/07/01 12:16:39;;;;;;;4.10;3.40;;;;;;;;;;10355888;28;20115;-78
2022/07/01 12:21:53;;;;;;;4.22;3.55;;;;;;;;;;10341738;28;20112;-76
2022/07/01 12:26:59;;;;;;;4.57;3.90;;;;;;;;;;10351827;28;20050;-77
2022/07/01 12:32:01;;;;;;;4.85;4.18;;;;;;;;;;10309574;28;20066;-76
2022/07/01 12:37:02;;;;;;;4.13;3.45;;;;;;;;;;10330155;28;20042;-79
2022/07/01 12:42:02;;;;;;;3.63;3.33;;;;;;;;;;10342048;28;20034;-77
2022/07/01 12:47:19;;;;;;;3.75;3.45;;;;;;;;;;10348295;28;20088;-82
2022/07/01 12:52:26;;;;;;;3.75;3.42;;;;;;;;;;10366821;28;20034;-81
2022/07/01 12:57:32;;;;;;;3.20;2.90;;;;;;;;;;10369398;28;20054;-81
2022/07/01 13:02:40;;;;;;;4.35;3.17;;;;;;;;;;10385441;28;20072;-79
2022/07/01 13:07:50;;;;;;;4.60;3.45;;;;;;;;;;10362738;28;20085;-80
2022/07/01 13:12:54;;;;;;;5.13;3.65;;;;;;;;;;10357042;28;20050;-83
2022/07/01 13:17:56;;;;;;;4.25;3.85;;;;;;;;;;10329690;28;20037;-83
2022/07/01 13:22:59;;;;;;;5.25;3.78;;;;;;;;;;10340443;28;20038;-81
2022/07/01 13:28:00;;;;;;;4.57;4.18;;;;;;;;;;10390064;28;20073;-79
2022/07/01 13:33:02;;;;;;;5.00;4.30;;;;;;;;;;10344289;28;20060;-79
2022/07/01 13:38:03;;;;;;;5.57;4.77;;;;;;;;;;10340404;28;20058;-79
2022/07/01 13:43:07;;;;;;;5.38;4.85;;;;;;;;;;10370997;28;20060;-80
2022/07/01 13:48:09;;;;;;;4.97;4.00;;;;;;;;;;10379368;28;20034;-80
2022/07/01 13:53:09;;;;;;;5.40;3.67;;;;;;;;;;10360487;28;20294;-79
2022/07/01 13:58:13;;;;;;;4.53;3.65;;;;;;;;;;10353772;28;20045;-80
2022/07/01 14:03:16;;;;;;;;;;;;;;;;;;10353309;28;20385;-79
2022/07/01 14:08:18;;;;;;;6.85;5.22;;;;;;;;;;10372806;28;19913;-77
2022/07/01 14:13:20;;;;;;;6.27;4.13;;;;;;;;;;10348195;28;20026;-82
2022/07/01 14:18:42;;;;;;;4.88;3.97;;;;;;;;;;10355641;28;20069;-84
2022/07/01 14:23:46;;;;;;;4.47;3.85;;;;;;;;;;10381865;28;20061;-80
2022/07/01 14:28:55;;;;;;;4.88;4.00;;;;;;;;;;10374268;28;20046;-85
2022/07/01 14:33:55;;;;;;;3.83;3.53;;;;;;;;;;10373450;28;20034;-85
2022/07/01 14:39:05;;;;;;;6.40;4.18;;;;;;;;;;10382249;28;20042;-80
2022/07/01 14:44:14;;;;;;;4.82;3.90;;;;;;;;;;10377657;28;20042;-79
2022/07/01 14:49:18;;;;;;;4.70;4.07;;;;;;;;;;10393254;28;20037;-82
2022/07/01 14:54:20;;;;;;;5.45;4.40;;;;;;;;;;10362274;28;20052;-81
2022/07/01 14:59:30;;;;;;;5.57;4.45;;;;;;;;;;10382076;28;20080;-82
2022/07/01 15:04:33;;;;;;;7.30;6.20;;;;;;;;;;10363378;28;20088;-82
2022/07/01 15:09:34;;;;;;;4.38;3.90;;;;;;;;;;10368862;28;20453;-81
2022/07/01 15:14:39;;;;;;;3.70;3.35;;;;;;;;;;10341727;28;20073;-80
2022/07/01 15:19:59;;;;;;;3.78;3.33;;;;;;;;;;10350514;28;20096;-81
2022/07/01 15:25:04;;;;;;;5.07;3.42;;;;;;;;;;10338448;28;20037;-79
2022/07/01 15:30:11;;;;;;;3.47;3.17;;;;;;;;;;10352883;28;20056;-78
2022/07/01 15:35:13;;;;;;;3.45;3.10;;;;;;;;;;10379063;28;20057;-79
2022/07/01 15:40:14;;;;;;;3.95;3.20;;;;;;;;;;10364180;28;20052;-83
2022/07/01 15:45:23;;;;;;;4.00;3.10;;;;;;;;;;10353848;28;20473;-82
2022/07/01 15:50:56;;;;;;;4.13;3.28;;;;;;;;;;10326073;28;20049;-81
2022/07/01 15:55:59;;;;;;;3.37;3.07;;;;;;;;;;10358748;28;20026;-82
2022/07/01 16:01:06;;;;;;;3.25;2.75;;;;;;;;;;10350839;28;20060;-84
2022/07/01 16:06:13;;;;;;;4.88;2.95;;;;;;;;;;10379503;28;20110;-79
2022/07/01 16:11:24;;;;;;;3.90;3.00;;;;;;;;;;10363898;28;20141;-82
2022/07/01 16:16:28;;;;;;;3.30;2.75;;;;;;;;;;10360949;28;20116;-73
2022/07/01 16:21:29;;;;;;;4.28;3.10;;;;;;;;;;10327612;28;20488;-73
2022/07/01 16:26:31;;;;;;;5.30;3.72;;;;;;;;;;10341195;28;20056;-72
2022/07/01 16:31:33;;;;;;;4.18;2.85;;;;;;;;;;10322543;28;20485;-74
2022/07/01 16:36:38;;;;;;;3.67;3.05;;;;;;;;;;10353634;28;20038;-78
2022/07/01 16:41:51;;;;;;;4.05;3.25;;;;;;;;;;10353528;28;20049;-80
2022/07/01 16:46:53;;;;;;;4.53;2.70;;;;;;;;;;10356029;28;20050;-76
2022/07/01 16:51:56;;;;;;;3.40;2.97;;;;;;;;;;10390002;28;20493;-78
2022/07/01 16:57:02;;;;;;;2.97;2.67;;;;;;;;;;10338327;28;20039;-79
2022/07/01 17:02:07;;;;;;;3.70;3.40;;;;;;;;;;10340793;28;20730;-78
2022/07/01 17:07:10;;;;;;;3.08;2.75;;;;;;;;;;10355599;28;20137;-79
2022/07/01 17:12:13;;;;;;;2.90;2.70;;;;;;;;;;10353085;28;20050;-76
2022/07/01 17:17:15;;;;;;;4.57;2.90;;;;;;;;;;10366035;28;20493;-78
2022/07/01 17:22:22;;;;;;;4.88;3.10;;;;;;;;;;10361618;28;20126;-77
2022/07/01 17:27:34;;;;;;;4.97;4.20;;;;;;;;;;10366149;28;20033;-78
2022/07/01 17:32:41;;;;;;;3.30;3.00;;;;;;;;;;10367563;28;20461;-80
2022/07/01 17:37:45;;;;;;;3.55;3.25;;;;;;;;;;10361680;28;20104;-77
2022/07/01 17:42:46;;;;;;;4.53;3.80;;;;;;;;;;10388236;28;20035;-77
2022/07/01 17:47:51;;;;;;;6.30;5.07;;;;;;;;;;10387595;28;20042;-76
2022/07/01 17:52:52;;;;;;;8.15;5.85;;;;;;;;;;10377959;28;20062;-78
2022/07/01 17:57:55;;;;;;;4.18;3.70;;;;;;;;;;10363808;28;20125;-79
2022/07/01 18:03:00;;;;;;;5.13;3.33;;;;;;;;;;10348597;28;20366;-75
2022/07/01 18:08:05;;;;;;;4.25;3.72;;;;;;;;;;10365887;28;20671;-77
2022/07/01 18:13:10;;;;;;;5.57;4.40;;;;;;;;;;10324779;28;20143;-79
2022/07/01 18:18:13;;;;;;;5.07;4.03;;;;;;;;;;10389951;28;20034;-82
2022/07/01 18:23:16;;;;;;;4.40;3.55;;;;;;;;;;10407144;28;20038;-78
2022/07/01 18:28:20;;;;;;;5.57;4.07;;;;;;;;;;10403075;28;20030;-77
2022/07/01 18:33:25;;;;;;;4.38;3.97;;;;;;;;;;10398888;28;20045;-77
2022/07/01 18:38:26;;;;;;;4.97;4.40;;;;;;;;;;10385657;28;20066;-78
2022/07/01 18:43:29;;;;;;;5.18;4.10;;;;;;;;;;10366051;28;20045;-79
2022/07/01 18:48:31;;;;;;;4.28;3.80;;;;;;;;;;10413626;28;20052;-78
2022/07/01 18:58:51;;;;;;;4.78;4.22;;;;;;;;;;10364028;28;20044;-79
2022/07/01 19:03:52;;;;;;;6.05;4.53;;;;;;;;;;10367884;28;20042;-78
2022/07/01 19:08:53;;;;;;;4.28;3.78;;;;;;;;;;10345247;28;20049;-77
2022/07/01 19:13:54;;;;;;;5.07;4.45;;;;;;;;;;10364994;28;20047;-78
2022/07/01 19:18:54;;;;;;;5.15;4.32;;;;;;;;;;10344572;28;20058;-78
2022/07/01 19:23:56;;;;;;;6.20;5.05;;;;;;;;;;10367576;28;20049;-77
2022/07/01 19:28:58;;;;;;;4.30;3.90;;;;;;;;;;10348052;28;20060;-77
2022/07/01 19:34:04;;;;;;;5.88;5.28;;;;;;;;;;10341377;28;20102;-81
2022/07/01 19:39:06;;;;;;;7.38;5.22;;;;;;;;;;10360580;28;20468;-78
2022/07/01 19:44:08;;;;;;;7.05;5.90;;;;;;;;;;10365441;28;20046;-78
2022/07/01 19:49:08;;;;;;;8.95;6.20;;;;;;;;;;10354302;28;20053;-78
2022/07/01 19:54:10;;;;;;;6.20;5.60;;;;;;;;;;10364936;28;20026;-78
2022/07/01 19:59:14;;;;;;;8.68;6.28;;;;;;;;;;10356164;28;20057;-78
2022/07/01 20:04:16;;;;;;;7.47;5.78;;;;;;;;;;10359064;28;20034;-78
2022/07/01 20:09:19;;;;;;;6.37;5.40;;;;;;;;;;10343155;28;20042;-78
2022/07/01 20:14:23;;;;;;;8.57;5.95;;;;;;;;;;10349129;28;20033;-78
2022/07/01 20:19:27;;;;;;;9.63;5.50;;;;;;;;;;10356293;28;20050;-79
2022/07/01 20:24:28;;;;;;;6.90;5.72;;;;;;;;;;10335107;28;20121;-79
2022/07/01 20:29:31;;;;;;;8.05;5.45;;;;;;;;;;10361503;28;20106;-77
2022/07/01 20:34:33;;;;;;;6.25;5.32;;;;;;;;;;10350953;28;20089;-78
2022/07/01 20:39:36;;;;;;;6.10;5.22;;;;;;;;;;10340296;28;20046;-80
2022/07/01 20:44:40;;;;;;;8.25;5.75;;;;;;;;;;10321143;28;20058;-79
2022/07/01 20:49:40;;;;;;;7.22;5.75;;;;;;;;;;10348030;28;20066;-79
2022/07/01 20:54:44;;;;;;;6.32;5.68;;;;;;;;;;10333386;28;20046;-78
2022/07/01 20:59:48;;;;;;;6.70;5.28;;;;;;;;;;10331284;28;20089;-78
2022/07/01 21:04:52;;;;;;;7.45;5.30;;;;;;;;;;10318867;28;20052;-78
2022/07/01 21:15:17;;;;;;;5.97;5.45;;;;;;;;;;10386643;28;20057;-78
2022/07/01 21:20:19;;;;;;;6.63;5.82;;;;;;;;;;10369261;28;20098;-81
2022/07/01 21:25:20;;;;;;;6.63;5.83;;;;;;;;;;10377710;28;20052;-79
2022/07/01 21:30:22;;;;;;;8.48;6.05;;;;;;;;;;10362965;28;20500;-78
2022/07/01 21:59:15;;;;;;;9.55;7.22;;;;;;;;;;10353335;28;20046;-80
2022/07/01 22:04:22;;;;;;;7.70;6.70;;;;;;;;;;10350005;28;20038;-78
2022/07/01 22:09:23;;;;;;;6.88;6.15;;;;;;;;;;10343581;28;20070;-78
2022/07/01 22:14:28;;;;;;;8.07;6.55;;;;;;;;;;10308650;28;20055;-78
2022/07/01 22:19:29;;;;;;;9.48;6.43;;;;;;;;;;10340296;28;20077;-79
2022/07/01 22:24:36;;;;;;;8.35;6.93;;;;;;;;;;10257597;28;20086;-79
2022/07/01 22:29:40;;;;;;;8.23;5.55;;;;;;;;;;10304372;28;20054;-78
2022/07/01 22:34:41;;;;;;;7.03;6.30;;;;;;;;;;10268058;28;20047;-80
2022/07/01 22:39:41;;;;;;;8.15;6.93;;;;;;;;;;10338917;28;20069;-78
2022/07/01 22:44:42;;;;;;;8.48;6.90;;;;;;;;;;10347386;28;20047;-78
2022/07/01 22:49:53;;;;;;;7.03;6.30;;;;;;;;;;10352121;28;20130;-78
2022/07/01 22:55:02;;;;;;;6.90;6.20;;;;;;;;;;10362719;28;20065;-78
2022/07/01 23:00:05;;;;;;;6.18;5.57;;;;;;;;;;10348404;28;20125;-79
2022/07/01 23:05:12;;;;;;;7.68;5.82;;;;;;;;;;10355401;28;20066;-79
2022/07/01 23:10:14;;;;;;;6.60;5.88;;;;;;;;;;10341726;28;20057;-78
2022/07/01 23:20:40;;;;;;;6.78;5.80;;;;;;;;;;10345364;28;20140;-79
2022/07/01 23:25:51;;;;;;;6.90;6.20;;;;;;;;;;10356387;28;20058;-79
2022/07/01 23:30:55;;;;;;;6.20;4.97;;;;;;;;;;10349513;28;20057;-79
2022/07/01 23:35:57;;;;;;;6.10;5.50;;;;;;;;;;10348882;28;20093;-80
2022/07/01 23:41:15;;;;;;;7.97;5.20;;;;;;;;;;10352934;28;20061;-79
2022/07/01 23:46:17;;;;;;;5.78;5.18;;;;;;;;;;10366817;28;20057;-78
2022/07/01 23:51:18;;;;;;;7.15;5.20;;;;;;;;;;10343623;28;20140;-78
2022/07/01 23:56:19;;;;;;;6.03;5.03;;;;;;;;;;10333786;28;20052;-78
